sensor_id;sensor_type;location;lat;lon;timestamp;P1;durP1;ratioP1;P2;durP2;ratioP2
22318;SDS011;11327;52.334;9.506;2023-02-28T00:01:53;8.08;;;6.00;;
22318;SDS011;11327;52.334;9.506;2023-02-28T00:05:15;8.93;;;6.37;;
22318;SDS011;11327;52.334;9.506;2023-02-28T00:08:38;9.60;;;6.47;;
22318;SDS011;11327;52.334;9.506;2023-02-28T00:11:59;7.87;;;5.70;;
22318;SDS011;11327;52.334;9.506;2023-02-28T00:15:20;10.35;;;6.92;;
22318;SDS011;11327;52.334;9.506;2023-02-28T00:18:41;9.18;;;6.40;;
22318;SDS011;11327;52.334;9.506;2023-02-28T00:22:02;8.50;;;5.92;;
22318;SDS011;11327;52.334;9.506;2023-02-28T00:25:24;9.10;;;6.72;;
22318;SDS011;11327;52.334;9.506;2023-02-28T00:28:45;9.38;;;6.15;;
22318;SDS011;11327;52.334;9.506;2023-02-28T00:32:06;9.03;;;6.28;;
22318;SDS011;11327;52.334;9.506;2023-02-28T00:35:27;9.78;;;6.37;;
22318;SDS011;11327;52.334;9.506;2023-02-28T00:38:48;9.10;;;6.08;;
22318;SDS011;11327;52.334;9.506;2023-02-28T00:42:08;9.60;;;6.80;;
22318;SDS011;11327;52.334;9.506;2023-02-28T00:45:29;8.78;;;6.42;;
22318;SDS011;11327;52.334;9.506;2023-02-28T00:48:50;10.35;;;6.60;;
22318;SDS011;11327;52.334;9.506;2023-02-28T00:52:11;8.60;;;6.40;;
22318;SDS011;11327;52.334;9.506;2023-02-28T00:55:32;10.15;;;6.62;;
22318;SDS011;11327;52.334;9.506;2023-02-28T00:58:52;9.40;;;6.95;;
22318;SDS011;11327;52.334;9.506;2023-02-28T01:02:13;10.93;;;7.12;;
22318;SDS011;11327;52.334;9.506;2023-02-28T01:05:34;12.10;;;6.97;;
22318;SDS011;11327;52.334;9.506;2023-02-28T01:08:54;9.78;;;6.75;;
22318;SDS011;11327;52.334;9.506;2023-02-28T01:12:15;10.25;;;6.97;;
22318;SDS011;11327;52.334;9.506;2023-02-28T01:15:36;8.95;;;6.72;;
22318;SDS011;11327;52.334;9.506;2023-02-28T01:18:58;9.85;;;6.80;;
22318;SDS011;11327;52.334;9.506;2023-02-28T01:22:19;9.30;;;6.30;;
22318;SDS011;11327;52.334;9.506;2023-02-28T01:25:39;10.85;;;6.75;;
22318;SDS011;11327;52.334;9.506;2023-02-28T01:29:00;10.72;;;6.67;;
22318;SDS011;11327;52.334;9.506;2023-02-28T01:32:21;11.55;;;6.92;;
22318;SDS011;11327;52.334;9.506;2023-02-28T01:35:41;9.38;;;6.00;;
22318;SDS011;11327;52.334;9.506;2023-02-28T01:39:02;9.03;;;6.17;;
22318;SDS011;11327;52.334;9.506;2023-02-28T01:42:23;8.93;;;6.25;;
22318;SDS011;11327;52.334;9.506;2023-02-28T01:45:44;9.23;;;6.47;;
22318;SDS011;11327;52.334;9.506;2023-02-28T01:49:06;9.50;;;6.53;;
22318;SDS011;11327;52.334;9.506;2023-02-28T01:52:29;9.38;;;5.97;;
22318;SDS011;11327;52.334;9.506;2023-02-28T01:55:52;9.25;;;6.00;;
22318;SDS011;11327;52.334;9.506;2023-02-28T01:59:16;9.65;;;6.58;;
22318;SDS011;11327;52.334;9.506;2023-02-28T02:02:42;10.28;;;6.17;;
22318;SDS011;11327;52.334;9.506;2023-02-28T02:06:06;9.58;;;6.12;;
22318;SDS011;11327;52.334;9.506;2023-02-28T02:09:26;10.10;;;6.30;;
22318;SDS011;11327;52.334;9.506;2023-02-28T02:20:16;10.30;;;6.80;;
22318;SDS011;11327;52.334;9.506;2023-02-28T02:27:23;8.63;;;6.35;;
22318;SDS011;11327;52.334;9.506;2023-02-28T02:30:56;8.40;;;6.15;;
22318;SDS011;11327;52.334;9.506;2023-02-28T02:38:03;9.33;;;6.35;;
22318;SDS011;11327;52.334;9.506;2023-02-28T02:44:55;10.05;;;6.70;;
22318;SDS011;11327;52.334;9.506;2023-02-28T02:48:16;9.30;;;6.00;;
22318;SDS011;11327;52.334;9.506;2023-02-28T02:51:41;10.20;;;6.42;;
22318;SDS011;11327;52.334;9.506;2023-02-28T02:55:03;8.73;;;6.10;;
22318;SDS011;11327;52.334;9.506;2023-02-28T02:58:26;10.60;;;6.75;;
22318;SDS011;11327;52.334;9.506;2023-02-28T03:01:51;10.38;;;6.65;;
22318;SDS011;11327;52.334;9.506;2023-02-28T03:05:17;9.43;;;6.80;;
22318;SDS011;11327;52.334;9.506;2023-02-28T03:08:42;11.00;;;7.03;;
22318;SDS011;11327;52.334;9.506;2023-02-28T03:12:03;12.90;;;7.78;;
22318;SDS011;11327;52.334;9.506;2023-02-28T03:15:31;16.00;;;9.33;;
22318;SDS011;11327;52.334;9.506;2023-02-28T03:18:54;20.95;;;10.53;;
22318;SDS011;11327;52.334;9.506;2023-02-28T03:22:48;19.00;;;10.25;;
22318;SDS011;11327;52.334;9.506;2023-02-28T03:26:16;22.58;;;11.30;;
22318;SDS011;11327;52.334;9.506;2023-02-28T03:29:46;17.70;;;9.58;;
22318;SDS011;11327;52.334;9.506;2023-02-28T03:33:16;19.10;;;9.80;;
22318;SDS011;11327;52.334;9.506;2023-02-28T03:36:51;18.90;;;9.80;;
22318;SDS011;11327;52.334;9.506;2023-02-28T03:40:15;17.73;;;8.75;;
22318;SDS011;11327;52.334;9.506;2023-02-28T03:43:52;14.85;;;8.55;;
22318;SDS011;11327;52.334;9.506;2023-02-28T03:47:25;16.20;;;7.62;;
22318;SDS011;11327;52.334;9.506;2023-02-28T03:50:54;10.63;;;6.53;;
22318;SDS011;11327;52.334;9.506;2023-02-28T04:01:41;9.23;;;5.95;;
22318;SDS011;11327;52.334;9.506;2023-02-28T04:05:04;10.40;;;5.72;;
22318;SDS011;11327;52.334;9.506;2023-02-28T04:08:25;8.78;;;6.10;;
22318;SDS011;11327;52.334;9.506;2023-02-28T04:11:50;8.43;;;5.83;;
22318;SDS011;11327;52.334;9.506;2023-02-28T04:15:12;9.00;;;5.37;;
22318;SDS011;11327;52.334;9.506;2023-02-28T04:18:33;9.30;;;5.50;;
22318;SDS011;11327;52.334;9.506;2023-02-28T04:21:53;9.85;;;5.33;;
22318;SDS011;11327;52.334;9.506;2023-02-28T04:25:14;8.80;;;5.15;;
22318;SDS011;11327;52.334;9.506;2023-02-28T04:28:36;6.87;;;4.95;;
22318;SDS011;11327;52.334;9.506;2023-02-28T04:31:58;7.50;;;4.67;;
22318;SDS011;11327;52.334;9.506;2023-02-28T04:35:20;7.80;;;4.47;;
22318;SDS011;11327;52.334;9.506;2023-02-28T04:38:41;7.22;;;4.55;;
22318;SDS011;11327;52.334;9.506;2023-02-28T04:42:03;8.65;;;4.65;;
22318;SDS011;11327;52.334;9.506;2023-02-28T04:45:24;7.03;;;4.40;;
22318;SDS011;11327;52.334;9.506;2023-02-28T04:48:45;7.72;;;4.65;;
22318;SDS011;11327;52.334;9.506;2023-02-28T04:52:06;6.80;;;4.78;;
22318;SDS011;11327;52.334;9.506;2023-02-28T04:55:27;9.50;;;5.25;;
22318;SDS011;11327;52.334;9.506;2023-02-28T04:58:48;7.70;;;4.83;;
22318;SDS011;11327;52.334;9.506;2023-02-28T05:02:11;7.35;;;4.47;;
22318;SDS011;11327;52.334;9.506;2023-02-28T05:05:31;6.55;;;4.30;;
22318;SDS011;11327;52.334;9.506;2023-02-28T05:08:52;6.50;;;4.45;;
22318;SDS011;11327;52.334;9.506;2023-02-28T05:12:14;6.03;;;4.20;;
22318;SDS011;11327;52.334;9.506;2023-02-28T05:15:34;5.37;;;3.92;;
22318;SDS011;11327;52.334;9.506;2023-02-28T05:18:55;6.15;;;4.10;;
22318;SDS011;11327;52.334;9.506;2023-02-28T05:22:16;7.45;;;4.70;;
22318;SDS011;11327;52.334;9.506;2023-02-28T05:25:37;6.22;;;3.90;;
22318;SDS011;11327;52.334;9.506;2023-02-28T05:28:57;6.62;;;4.08;;
22318;SDS011;11327;52.334;9.506;2023-02-28T05:32:18;5.87;;;4.37;;
22318;SDS011;11327;52.334;9.506;2023-02-28T05:35:39;5.87;;;3.98;;
22318;SDS011;11327;52.334;9.506;2023-02-28T05:39:01;5.97;;;4.17;;
22318;SDS011;11327;52.334;9.506;2023-02-28T05:42:21;6.33;;;3.90;;
22318;SDS011;11327;52.334;9.506;2023-02-28T05:45:42;6.90;;;4.67;;
22318;SDS011;11327;52.334;9.506;2023-02-28T05:49:03;6.78;;;4.15;;
22318;SDS011;11327;52.334;9.506;2023-02-28T05:52:24;6.30;;;4.10;;
22318;SDS011;11327;52.334;9.506;2023-02-28T05:55:44;5.42;;;4.12;;
22318;SDS011;11327;52.334;9.506;2023-02-28T05:59:05;7.72;;;4.50;;
22318;SDS011;11327;52.334;9.506;2023-02-28T06:02:27;7.55;;;4.58;;
22318;SDS011;11327;52.334;9.506;2023-02-28T06:05:48;7.60;;;4.97;;
22318;SDS011;11327;52.334;9.506;2023-02-28T06:09:09;7.45;;;4.97;;
22318;SDS011;11327;52.334;9.506;2023-02-28T06:12:29;7.72;;;4.92;;
22318;SDS011;11327;52.334;9.506;2023-02-28T06:15:50;5.85;;;3.95;;
22318;SDS011;11327;52.334;9.506;2023-02-28T06:19:11;4.78;;;3.30;;
22318;SDS011;11327;52.334;9.506;2023-02-28T06:22:32;5.80;;;3.30;;
22318;SDS011;11327;52.334;9.506;2023-02-28T06:25:53;5.37;;;3.20;;
22318;SDS011;11327;52.334;9.506;2023-02-28T06:29:15;4.62;;;2.58;;
22318;SDS011;11327;52.334;9.506;2023-02-28T06:32:39;3.75;;;2.15;;
22318;SDS011;11327;52.334;9.506;2023-02-28T06:36:00;3.75;;;2.50;;
22318;SDS011;11327;52.334;9.506;2023-02-28T06:39:21;3.12;;;2.08;;
22318;SDS011;11327;52.334;9.506;2023-02-28T06:42:42;3.47;;;2.20;;
22318;SDS011;11327;52.334;9.506;2023-02-28T06:46:04;4.45;;;2.22;;
22318;SDS011;11327;52.334;9.506;2023-02-28T06:49:27;3.20;;;2.25;;
22318;SDS011;11327;52.334;9.506;2023-02-28T06:52:48;3.95;;;2.40;;
22318;SDS011;11327;52.334;9.506;2023-02-28T06:56:09;3.83;;;2.27;;
22318;SDS011;11327;52.334;9.506;2023-02-28T06:59:32;3.40;;;2.20;;
22318;SDS011;11327;52.334;9.506;2023-02-28T07:02:53;3.67;;;2.52;;
22318;SDS011;11327;52.334;9.506;2023-02-28T07:06:15;4.33;;;2.40;;
22318;SDS011;11327;52.334;9.506;2023-02-28T07:09:37;4.85;;;2.20;;
22318;SDS011;11327;52.334;9.506;2023-02-28T07:12:59;3.77;;;2.20;;
22318;SDS011;11327;52.334;9.506;2023-02-28T07:16:20;4.92;;;2.45;;
22318;SDS011;11327;52.334;9.506;2023-02-28T07:19:42;3.62;;;2.60;;
22318;SDS011;11327;52.334;9.506;2023-02-28T07:23:03;3.58;;;2.40;;
22318;SDS011;11327;52.334;9.506;2023-02-28T07:26:24;4.05;;;3.00;;
22318;SDS011;11327;52.334;9.506;2023-02-28T07:29:44;5.45;;;3.22;;
22318;SDS011;11327;52.334;9.506;2023-02-28T07:33:05;5.78;;;3.00;;
22318;SDS011;11327;52.334;9.506;2023-02-28T07:36:26;5.75;;;3.27;;
22318;SDS011;11327;52.334;9.506;2023-02-28T07:39:46;5.92;;;3.27;;
22318;SDS011;11327;52.334;9.506;2023-02-28T07:43:07;6.00;;;4.05;;
22318;SDS011;11327;52.334;9.506;2023-02-28T07:46:28;13.88;;;7.53;;
22318;SDS011;11327;52.334;9.506;2023-02-28T07:49:50;11.83;;;7.15;;
22318;SDS011;11327;52.334;9.506;2023-02-28T07:53:11;10.40;;;5.92;;
22318;SDS011;11327;52.334;9.506;2023-02-28T07:56:32;6.03;;;3.95;;
22318;SDS011;11327;52.334;9.506;2023-02-28T07:59:53;6.53;;;3.80;;
22318;SDS011;11327;52.334;9.506;2023-02-28T08:03:13;6.95;;;3.75;;
22318;SDS011;11327;52.334;9.506;2023-02-28T08:06:34;5.58;;;3.27;;
22318;SDS011;11327;52.334;9.506;2023-02-28T08:09:55;4.30;;;3.25;;
22318;SDS011;11327;52.334;9.506;2023-02-28T08:13:16;4.53;;;3.70;;
22318;SDS011;11327;52.334;9.506;2023-02-28T08:16:36;5.80;;;3.87;;
22318;SDS011;11327;52.334;9.506;2023-02-28T08:19:59;4.53;;;3.37;;
22318;SDS011;11327;52.334;9.506;2023-02-28T08:23:19;5.33;;;4.10;;
22318;SDS011;11327;52.334;9.506;2023-02-28T08:26:40;5.15;;;4.08;;
22318;SDS011;11327;52.334;9.506;2023-02-28T08:30:01;6.40;;;4.33;;
22318;SDS011;11327;52.334;9.506;2023-02-28T08:33:22;7.30;;;4.75;;
22318;SDS011;11327;52.334;9.506;2023-02-28T08:36:44;6.05;;;4.47;;
22318;SDS011;11327;52.334;9.506;2023-02-28T08:40:06;7.17;;;4.78;;
22318;SDS011;11327;52.334;9.506;2023-02-28T08:43:28;9.20;;;6.40;;
22318;SDS011;11327;52.334;9.506;2023-02-28T08:46:48;9.98;;;6.28;;
22318;SDS011;11327;52.334;9.506;2023-02-28T08:50:09;8.93;;;6.12;;
22318;SDS011;11327;52.334;9.506;2023-02-28T08:53:30;8.25;;;6.15;;
22318;SDS011;11327;52.334;9.506;2023-02-28T08:56:52;9.23;;;5.83;;
22318;SDS011;11327;52.334;9.506;2023-02-28T09:00:13;9.43;;;6.00;;
22318;SDS011;11327;52.334;9.506;2023-02-28T09:03:34;8.70;;;6.28;;
22318;SDS011;11327;52.334;9.506;2023-02-28T09:06:54;9.05;;;6.53;;
22318;SDS011;11327;52.334;9.506;2023-02-28T09:10:15;8.68;;;6.25;;
22318;SDS011;11327;52.334;9.506;2023-02-28T09:13:37;10.43;;;6.30;;
22318;SDS011;11327;52.334;9.506;2023-02-28T09:16:58;11.68;;;6.85;;
22318;SDS011;11327;52.334;9.506;2023-02-28T09:20:18;11.28;;;6.87;;
22318;SDS011;11327;52.334;9.506;2023-02-28T09:23:40;11.10;;;7.20;;
22318;SDS011;11327;52.334;9.506;2023-02-28T09:27:02;10.05;;;6.75;;
22318;SDS011;11327;52.334;9.506;2023-02-28T09:30:23;12.05;;;7.17;;
22318;SDS011;11327;52.334;9.506;2023-02-28T09:33:43;10.60;;;6.90;;
22318;SDS011;11327;52.334;9.506;2023-02-28T09:37:04;9.08;;;6.47;;
22318;SDS011;11327;52.334;9.506;2023-02-28T09:40:25;11.65;;;6.90;;
22318;SDS011;11327;52.334;9.506;2023-02-28T09:43:47;10.03;;;6.45;;
22318;SDS011;11327;52.334;9.506;2023-02-28T09:50:40;9.43;;;6.20;;
22318;SDS011;11327;52.334;9.506;2023-02-28T09:54:04;11.93;;;6.50;;
22318;SDS011;11327;52.334;9.506;2023-02-28T10:00:54;8.18;;;5.47;;
22318;SDS011;11327;52.334;9.506;2023-02-28T10:11:33;7.10;;;4.42;;
22318;SDS011;11327;52.334;9.506;2023-02-28T10:14:56;9.13;;;4.30;;
22318;SDS011;11327;52.334;9.506;2023-02-28T10:18:21;6.55;;;4.30;;
22318;SDS011;11327;52.334;9.506;2023-02-28T10:21:46;5.85;;;4.00;;
22318;SDS011;11327;52.334;9.506;2023-02-28T10:25:20;6.35;;;3.83;;
22318;SDS011;11327;52.334;9.506;2023-02-28T10:32:03;4.25;;;3.00;;
22318;SDS011;11327;52.334;9.506;2023-02-28T10:35:25;4.65;;;2.60;;
22318;SDS011;11327;52.334;9.506;2023-02-28T10:38:47;4.35;;;2.40;;
22318;SDS011;11327;52.334;9.506;2023-02-28T10:46:02;7.00;;;2.50;;
22318;SDS011;11327;52.334;9.506;2023-02-28T10:49:25;4.85;;;2.65;;
22318;SDS011;11327;52.334;9.506;2023-02-28T10:52:48;4.10;;;2.35;;
22318;SDS011;11327;52.334;9.506;2023-02-28T10:59:34;3.75;;;1.67;;
22318;SDS011;11327;52.334;9.506;2023-02-28T11:02:55;1.62;;;1.10;;
22318;SDS011;11327;52.334;9.506;2023-02-28T11:06:20;2.37;;;1.30;;
22318;SDS011;11327;52.334;9.506;2023-02-28T11:09:48;1.90;;;1.37;;
22318;SDS011;11327;52.334;9.506;2023-02-28T11:13:16;2.12;;;1.40;;
22318;SDS011;11327;52.334;9.506;2023-02-28T11:16:40;3.20;;;1.55;;
22318;SDS011;11327;52.334;9.506;2023-02-28T11:20:05;2.98;;;1.75;;
22318;SDS011;11327;52.334;9.506;2023-02-28T11:23:27;2.50;;;1.67;;
22318;SDS011;11327;52.334;9.506;2023-02-28T11:26:50;2.70;;;1.80;;
22318;SDS011;11327;52.334;9.506;2023-02-28T11:30:28;2.98;;;2.08;;
22318;SDS011;11327;52.334;9.506;2023-02-28T11:33:57;2.83;;;1.75;;
22318;SDS011;11327;52.334;9.506;2023-02-28T11:37:18;2.02;;;1.50;;
22318;SDS011;11327;52.334;9.506;2023-02-28T11:41:25;2.62;;;1.50;;
22318;SDS011;11327;52.334;9.506;2023-02-28T11:44:23;2.20;;;1.55;;
22318;SDS011;11327;52.334;9.506;2023-02-28T11:51:27;2.85;;;1.62;;
22318;SDS011;11327;52.334;9.506;2023-02-28T12:02:25;4.33;;;1.50;;
22318;SDS011;11327;52.334;9.506;2023-02-28T12:10:01;2.37;;;1.45;;
22318;SDS011;11327;52.334;9.506;2023-02-28T12:13:23;2.70;;;1.32;;
22318;SDS011;11327;52.334;9.506;2023-02-28T12:17:00;3.12;;;1.50;;
22318;SDS011;11327;52.334;9.506;2023-02-28T12:20:44;2.33;;;1.62;;
22318;SDS011;11327;52.334;9.506;2023-02-28T12:27:42;2.65;;;1.37;;
22318;SDS011;11327;52.334;9.506;2023-02-28T12:31:09;2.85;;;1.60;;
22318;SDS011;11327;52.334;9.506;2023-02-28T12:34:53;2.52;;;1.77;;
22318;SDS011;11327;52.334;9.506;2023-02-28T12:38:12;3.27;;;1.70;;
22318;SDS011;11327;52.334;9.506;2023-02-28T12:41:37;4.12;;;1.72;;
22318;SDS011;11327;52.334;9.506;2023-02-28T12:45:07;3.58;;;1.80;;
22318;SDS011;11327;52.334;9.506;2023-02-28T12:48:55;3.47;;;1.95;;
22318;SDS011;11327;52.334;9.506;2023-02-28T12:52:02;3.70;;;2.02;;
22318;SDS011;11327;52.334;9.506;2023-02-28T12:55:35;6.00;;;2.10;;
22318;SDS011;11327;52.334;9.506;2023-02-28T12:59:13;3.80;;;2.12;;
22318;SDS011;11327;52.334;9.506;2023-02-28T13:10:22;2.77;;;1.67;;
22318;SDS011;11327;52.334;9.506;2023-02-28T13:13:43;3.05;;;2.00;;
22318;SDS011;11327;52.334;9.506;2023-02-28T13:20:36;3.60;;;2.40;;
22318;SDS011;11327;52.334;9.506;2023-02-28T13:24:03;4.03;;;2.65;;
22318;SDS011;11327;52.334;9.506;2023-02-28T13:27:35;4.17;;;2.55;;
22318;SDS011;11327;52.334;9.506;2023-02-28T13:31:01;3.67;;;2.37;;
22318;SDS011;11327;52.334;9.506;2023-02-28T13:34:23;3.37;;;2.30;;
22318;SDS011;11327;52.334;9.506;2023-02-28T13:37:45;3.15;;;2.10;;
22318;SDS011;11327;52.334;9.506;2023-02-28T13:48:25;4.03;;;2.42;;
22318;SDS011;11327;52.334;9.506;2023-02-28T13:51:53;4.37;;;2.50;;
22318;SDS011;11327;52.334;9.506;2023-02-28T13:58:58;3.20;;;2.20;;
22318;SDS011;11327;52.334;9.506;2023-02-28T14:02:33;4.05;;;2.12;;
22318;SDS011;11327;52.334;9.506;2023-02-28T14:09:45;4.85;;;2.92;;
22318;SDS011;11327;52.334;9.506;2023-02-28T14:17:05;4.62;;;2.70;;
22318;SDS011;11327;52.334;9.506;2023-02-28T14:20:27;3.72;;;2.47;;
22318;SDS011;11327;52.334;9.506;2023-02-28T14:24:02;3.95;;;2.60;;
22318;SDS011;11327;52.334;9.506;2023-02-28T14:31:17;3.25;;;2.17;;
22318;SDS011;11327;52.334;9.506;2023-02-28T14:38:17;6.45;;;2.90;;
22318;SDS011;11327;52.334;9.506;2023-02-28T14:41:38;5.85;;;2.50;;
22318;SDS011;11327;52.334;9.506;2023-02-28T14:45:01;3.25;;;2.00;;
22318;SDS011;11327;52.334;9.506;2023-02-28T14:48:22;5.42;;;2.67;;
22318;SDS011;11327;52.334;9.506;2023-02-28T14:51:45;5.42;;;2.37;;
22318;SDS011;11327;52.334;9.506;2023-02-28T14:55:12;5.40;;;2.60;;
22318;SDS011;11327;52.334;9.506;2023-02-28T14:58:32;3.80;;;2.62;;
22318;SDS011;11327;52.334;9.506;2023-02-28T15:02:14;3.87;;;2.47;;
22318;SDS011;11327;52.334;9.506;2023-02-28T15:05:39;3.77;;;2.47;;
22318;SDS011;11327;52.334;9.506;2023-02-28T15:09:07;4.65;;;2.80;;
22318;SDS011;11327;52.334;9.506;2023-02-28T15:12:39;3.02;;;2.00;;
22318;SDS011;11327;52.334;9.506;2023-02-28T15:16:01;4.40;;;2.75;;
22318;SDS011;11327;52.334;9.506;2023-02-28T15:19:32;3.55;;;2.50;;
22318;SDS011;11327;52.334;9.506;2023-02-28T15:22:55;5.28;;;2.70;;
22318;SDS011;11327;52.334;9.506;2023-02-28T15:26:18;3.42;;;2.70;;
22318;SDS011;11327;52.334;9.506;2023-02-28T15:29:45;3.47;;;2.33;;
22318;SDS011;11327;52.334;9.506;2023-02-28T15:33:20;6.00;;;2.25;;
22318;SDS011;11327;52.334;9.506;2023-02-28T15:36:43;3.98;;;2.45;;
22318;SDS011;11327;52.334;9.506;2023-02-28T15:40:05;4.10;;;2.62;;
22318;SDS011;11327;52.334;9.506;2023-02-28T15:43:38;4.12;;;2.25;;
22318;SDS011;11327;52.334;9.506;2023-02-28T15:47:12;4.83;;;2.67;;
22318;SDS011;11327;52.334;9.506;2023-02-28T15:50:36;3.67;;;2.35;;
22318;SDS011;11327;52.334;9.506;2023-02-28T15:54:15;4.33;;;2.90;;
22318;SDS011;11327;52.334;9.506;2023-02-28T15:57:40;4.47;;;2.58;;
22318;SDS011;11327;52.334;9.506;2023-02-28T16:01:06;3.42;;;2.47;;
22318;SDS011;11327;52.334;9.506;2023-02-28T16:04:29;3.42;;;2.50;;
22318;SDS011;11327;52.334;9.506;2023-02-28T16:07:51;5.47;;;2.70;;
22318;SDS011;11327;52.334;9.506;2023-02-28T16:11:12;3.85;;;2.62;;
22318;SDS011;11327;52.334;9.506;2023-02-28T16:14:33;3.90;;;2.58;;
22318;SDS011;11327;52.334;9.506;2023-02-28T16:17:58;3.58;;;2.50;;
22318;SDS011;11327;52.334;9.506;2023-02-28T16:21:18;5.20;;;2.62;;
22318;SDS011;11327;52.334;9.506;2023-02-28T16:24:39;4.80;;;2.60;;
22318;SDS011;11327;52.334;9.506;2023-02-28T16:28:00;4.45;;;2.30;;
22318;SDS011;11327;52.334;9.506;2023-02-28T16:31:22;3.60;;;2.37;;
22318;SDS011;11327;52.334;9.506;2023-02-28T16:34:43;2.67;;;2.05;;
22318;SDS011;11327;52.334;9.506;2023-02-28T16:38:04;3.05;;;2.33;;
22318;SDS011;11327;52.334;9.506;2023-02-28T16:41:26;4.15;;;2.60;;
22318;SDS011;11327;52.334;9.506;2023-02-28T16:44:48;4.62;;;2.80;;
22318;SDS011;11327;52.334;9.506;2023-02-28T16:48:12;5.58;;;3.70;;
22318;SDS011;11327;52.334;9.506;2023-02-28T16:51:36;6.37;;;3.80;;
22318;SDS011;11327;52.334;9.506;2023-02-28T16:54:57;6.15;;;3.60;;
22318;SDS011;11327;52.334;9.506;2023-02-28T16:58:18;3.77;;;2.92;;
22318;SDS011;11327;52.334;9.506;2023-02-28T17:01:40;4.22;;;3.08;;
22318;SDS011;11327;52.334;9.506;2023-02-28T17:05:01;3.58;;;2.60;;
22318;SDS011;11327;52.334;9.506;2023-02-28T17:08:22;3.45;;;2.52;;
22318;SDS011;11327;52.334;9.506;2023-02-28T17:11:43;3.25;;;2.50;;
22318;SDS011;11327;52.334;9.506;2023-02-28T17:15:05;4.55;;;3.02;;
22318;SDS011;11327;52.334;9.506;2023-02-28T17:18:27;4.65;;;3.30;;
22318;SDS011;11327;52.334;9.506;2023-02-28T17:21:49;4.55;;;3.40;;
22318;SDS011;11327;52.334;9.506;2023-02-28T17:25:10;4.08;;;3.10;;
22318;SDS011;11327;52.334;9.506;2023-02-28T17:28:32;4.22;;;3.30;;
22318;SDS011;11327;52.334;9.506;2023-02-28T17:31:52;4.50;;;3.05;;
22318;SDS011;11327;52.334;9.506;2023-02-28T17:35:14;4.55;;;3.40;;
22318;SDS011;11327;52.334;9.506;2023-02-28T17:38:35;4.45;;;3.22;;
22318;SDS011;11327;52.334;9.506;2023-02-28T17:41:56;5.15;;;3.58;;
22318;SDS011;11327;52.334;9.506;2023-02-28T17:45:17;4.33;;;3.10;;
22318;SDS011;11327;52.334;9.506;2023-02-28T17:48:38;4.60;;;3.65;;
22318;SDS011;11327;52.334;9.506;2023-02-28T17:51:59;4.72;;;3.22;;
22318;SDS011;11327;52.334;9.506;2023-02-28T17:55:19;4.42;;;3.75;;
22318;SDS011;11327;52.334;9.506;2023-02-28T17:58:40;5.53;;;4.12;;
22318;SDS011;11327;52.334;9.506;2023-02-28T18:02:02;5.90;;;4.60;;
22318;SDS011;11327;52.334;9.506;2023-02-28T18:05:24;6.65;;;4.70;;
22318;SDS011;11327;52.334;9.506;2023-02-28T18:08:44;7.62;;;5.00;;
22318;SDS011;11327;52.334;9.506;2023-02-28T18:12:05;5.40;;;4.37;;
22318;SDS011;11327;52.334;9.506;2023-02-28T18:15:26;5.85;;;4.00;;
22318;SDS011;11327;52.334;9.506;2023-02-28T18:18:47;7.20;;;5.15;;
22318;SDS011;11327;52.334;9.506;2023-02-28T18:22:09;7.53;;;5.50;;
22318;SDS011;11327;52.334;9.506;2023-02-28T18:25:30;7.28;;;5.20;;
22318;SDS011;11327;52.334;9.506;2023-02-28T18:28:50;7.05;;;5.67;;
22318;SDS011;11327;52.334;9.506;2023-02-28T18:32:11;8.08;;;6.05;;
22318;SDS011;11327;52.334;9.506;2023-02-28T18:35:32;9.55;;;6.65;;
22318;SDS011;11327;52.334;9.506;2023-02-28T18:38:55;9.63;;;6.90;;
22318;SDS011;11327;52.334;9.506;2023-02-28T18:42:16;10.13;;;7.33;;
22318;SDS011;11327;52.334;9.506;2023-02-28T18:45:38;9.25;;;7.28;;
22318;SDS011;11327;52.334;9.506;2023-02-28T18:48:59;10.60;;;8.20;;
22318;SDS011;11327;52.334;9.506;2023-02-28T18:52:21;13.18;;;8.55;;
22318;SDS011;11327;52.334;9.506;2023-02-28T18:55:44;12.37;;;8.93;;
22318;SDS011;11327;52.334;9.506;2023-02-28T18:59:05;11.53;;;8.38;;
22318;SDS011;11327;52.334;9.506;2023-02-28T19:02:26;27.17;;;13.58;;
22318;SDS011;11327;52.334;9.506;2023-02-28T19:05:47;14.63;;;8.13;;
22318;SDS011;11327;52.334;9.506;2023-02-28T19:09:07;13.30;;;7.80;;
22318;SDS011;11327;52.334;9.506;2023-02-28T19:12:32;12.07;;;7.72;;
22318;SDS011;11327;52.334;9.506;2023-02-28T19:15:59;10.98;;;7.10;;
22318;SDS011;11327;52.334;9.506;2023-02-28T19:19:22;7.75;;;5.65;;
22318;SDS011;11327;52.334;9.506;2023-02-28T19:22:42;7.45;;;5.40;;
22318;SDS011;11327;52.334;9.506;2023-02-28T19:26:07;8.50;;;5.10;;
22318;SDS011;11327;52.334;9.506;2023-02-28T19:29:29;8.83;;;5.60;;
22318;SDS011;11327;52.334;9.506;2023-02-28T19:32:50;7.35;;;5.60;;
22318;SDS011;11327;52.334;9.506;2023-02-28T19:36:11;7.47;;;5.83;;
22318;SDS011;11327;52.334;9.506;2023-02-28T19:39:32;7.22;;;5.40;;
22318;SDS011;11327;52.334;9.506;2023-02-28T19:42:55;9.70;;;6.17;;
22318;SDS011;11327;52.334;9.506;2023-02-28T19:46:16;9.35;;;6.12;;
22318;SDS011;11327;52.334;9.506;2023-02-28T19:49:38;10.15;;;7.35;;
22318;SDS011;11327;52.334;9.506;2023-02-28T19:52:59;11.95;;;7.70;;
22318;SDS011;11327;52.334;9.506;2023-02-28T19:56:21;11.30;;;8.10;;
22318;SDS011;11327;52.334;9.506;2023-02-28T19:59:42;12.90;;;8.38;;
22318;SDS011;11327;52.334;9.506;2023-02-28T20:03:03;13.65;;;8.80;;
22318;SDS011;11327;52.334;9.506;2023-02-28T20:06:24;15.90;;;9.63;;
22318;SDS011;11327;52.334;9.506;2023-02-28T20:09:48;18.10;;;10.93;;
22318;SDS011;11327;52.334;9.506;2023-02-28T20:13:09;16.82;;;10.13;;
22318;SDS011;11327;52.334;9.506;2023-02-28T20:16:30;16.23;;;9.98;;
22318;SDS011;11327;52.334;9.506;2023-02-28T20:19:51;14.73;;;9.18;;
22318;SDS011;11327;52.334;9.506;2023-02-28T20:23:12;11.08;;;8.10;;
22318;SDS011;11327;52.334;9.506;2023-02-28T20:26:32;12.28;;;8.63;;
22318;SDS011;11327;52.334;9.506;2023-02-28T20:29:54;11.57;;;8.48;;
22318;SDS011;11327;52.334;9.506;2023-02-28T20:33:15;13.50;;;9.45;;
22318;SDS011;11327;52.334;9.506;2023-02-28T20:36:37;12.68;;;9.20;;
22318;SDS011;11327;52.334;9.506;2023-02-28T20:39:57;13.80;;;9.48;;
22318;SDS011;11327;52.334;9.506;2023-02-28T20:43:18;12.25;;;9.88;;
22318;SDS011;11327;52.334;9.506;2023-02-28T20:46:39;12.18;;;9.20;;
22318;SDS011;11327;52.334;9.506;2023-02-28T20:50:02;14.87;;;9.55;;
22318;SDS011;11327;52.334;9.506;2023-02-28T20:53:23;12.93;;;9.60;;
22318;SDS011;11327;52.334;9.506;2023-02-28T20:56:46;15.35;;;11.50;;
22318;SDS011;11327;52.334;9.506;2023-02-28T21:00:07;15.38;;;11.45;;
22318;SDS011;11327;52.334;9.506;2023-02-28T21:03:30;16.90;;;11.85;;
22318;SDS011;11327;52.334;9.506;2023-02-28T21:06:51;15.48;;;11.75;;
22318;SDS011;11327;52.334;9.506;2023-02-28T21:10:12;15.05;;;11.43;;
22318;SDS011;11327;52.334;9.506;2023-02-28T21:13:33;14.65;;;10.88;;
22318;SDS011;11327;52.334;9.506;2023-02-28T21:16:54;14.18;;;10.85;;
22318;SDS011;11327;52.334;9.506;2023-02-28T21:20:15;14.20;;;10.20;;
22318;SDS011;11327;52.334;9.506;2023-02-28T21:23:37;16.05;;;10.65;;
22318;SDS011;11327;52.334;9.506;2023-02-28T21:26:58;12.33;;;9.75;;
22318;SDS011;11327;52.334;9.506;2023-02-28T21:30:20;13.90;;;9.13;;
22318;SDS011;11327;52.334;9.506;2023-02-28T21:33:42;13.85;;;9.58;;
22318;SDS011;11327;52.334;9.506;2023-02-28T21:37:03;14.70;;;10.18;;
22318;SDS011;11327;52.334;9.506;2023-02-28T21:40:24;13.53;;;8.70;;
22318;SDS011;11327;52.334;9.506;2023-02-28T21:43:45;14.53;;;9.95;;
22318;SDS011;11327;52.334;9.506;2023-02-28T21:47:06;15.32;;;10.48;;
22318;SDS011;11327;52.334;9.506;2023-02-28T21:50:27;13.28;;;9.98;;
22318;SDS011;11327;52.334;9.506;2023-02-28T21:53:48;16.20;;;10.05;;
22318;SDS011;11327;52.334;9.506;2023-02-28T21:57:09;14.18;;;10.10;;
22318;SDS011;11327;52.334;9.506;2023-02-28T22:00:32;14.65;;;10.48;;
22318;SDS011;11327;52.334;9.506;2023-02-28T22:03:53;14.95;;;10.53;;